sensor_id;sensor_type;location;lat;lon;timestamp;P1;durP1;ratioP1;P2;durP2;ratioP2
3573;SDS011;1801;51.050;6.246;2022-11-20T00:01:07;33.40;;;14.23;;
3573;SDS011;1801;51.050;6.246;2022-11-20T00:03:32;27.73;;;13.68;;
3573;SDS011;1801;51.050;6.246;2022-11-20T00:06:01;36.53;;;15.83;;
3573;SDS011;1801;51.050;6.246;2022-11-20T00:08:26;34.85;;;15.20;;
3573;SDS011;1801;51.050;6.246;2022-11-20T00:10:52;31.03;;;13.90;;
3573;SDS011;1801;51.050;6.246;2022-11-20T00:13:17;36.90;;;14.30;;
3573;SDS011;1801;51.050;6.246;2022-11-20T00:15:42;36.30;;;14.53;;
3573;SDS011;1801;51.050;6.246;2022-11-20T00:18:07;29.43;;;14.17;;
3573;SDS011;1801;51.050;6.246;2022-11-20T00:20:32;32.20;;;14.50;;
3573;SDS011;1801;51.050;6.246;2022-11-20T00:22:58;30.73;;;13.80;;
3573;SDS011;1801;51.050;6.246;2022-11-20T00:25:23;25.80;;;13.00;;
3573;SDS011;1801;51.050;6.246;2022-11-20T00:27:48;29.30;;;14.30;;
3573;SDS011;1801;51.050;6.246;2022-11-20T00:30:13;31.20;;;14.63;;
3573;SDS011;1801;51.050;6.246;2022-11-20T00:32:38;31.77;;;14.27;;
3573;SDS011;1801;51.050;6.246;2022-11-20T00:35:04;30.17;;;15.00;;
3573;SDS011;1801;51.050;6.246;2022-11-20T00:37:29;27.37;;;14.93;;
3573;SDS011;1801;51.050;6.246;2022-11-20T00:39:54;27.23;;;12.80;;
3573;SDS011;1801;51.050;6.246;2022-11-20T00:42:19;32.90;;;15.43;;
3573;SDS011;1801;51.050;6.246;2022-11-20T00:44:44;29.87;;;13.03;;
3573;SDS011;1801;51.050;6.246;2022-11-20T00:47:10;29.93;;;14.33;;
3573;SDS011;1801;51.050;6.246;2022-11-20T00:49:35;32.17;;;15.20;;
3573;SDS011;1801;51.050;6.246;2022-11-20T00:52:00;27.33;;;13.37;;
3573;SDS011;1801;51.050;6.246;2022-11-20T00:54:25;31.83;;;16.13;;
3573;SDS011;1801;51.050;6.246;2022-11-20T00:56:52;26.30;;;12.90;;
3573;SDS011;1801;51.050;6.246;2022-11-20T00:59:17;33.50;;;15.57;;
3573;SDS011;1801;51.050;6.246;2022-11-20T01:01:43;31.20;;;14.13;;
3573;SDS011;1801;51.050;6.246;2022-11-20T01:04:08;31.53;;;14.97;;
3573;SDS011;1801;51.050;6.246;2022-11-20T01:06:34;33.53;;;14.47;;
3573;SDS011;1801;51.050;6.246;2022-11-20T01:09:02;25.83;;;13.60;;
3573;SDS011;1801;51.050;6.246;2022-11-20T01:11:28;27.38;;;13.57;;
3573;SDS011;1801;51.050;6.246;2022-11-20T01:13:54;29.75;;;13.27;;
3573;SDS011;1801;51.050;6.246;2022-11-20T01:16:21;31.02;;;13.02;;
3573;SDS011;1801;51.050;6.246;2022-11-20T01:18:48;31.35;;;14.50;;
3573;SDS011;1801;51.050;6.246;2022-11-20T01:21:16;34.00;;;12.90;;
3573;SDS011;1801;51.050;6.246;2022-11-20T01:23:41;33.10;;;14.98;;
3573;SDS011;1801;51.050;6.246;2022-11-20T01:26:08;29.30;;;12.50;;
3573;SDS011;1801;51.050;6.246;2022-11-20T01:28:34;32.25;;;14.02;;
3573;SDS011;1801;51.050;6.246;2022-11-20T01:30:59;32.77;;;13.10;;
3573;SDS011;1801;51.050;6.246;2022-11-20T01:33:25;29.67;;;13.90;;
3573;SDS011;1801;51.050;6.246;2022-11-20T01:35:51;30.47;;;14.83;;
3573;SDS011;1801;51.050;6.246;2022-11-20T01:38:16;34.20;;;14.80;;
3573;SDS011;1801;51.050;6.246;2022-11-20T01:40:41;30.30;;;13.73;;
3573;SDS011;1801;51.050;6.246;2022-11-20T01:43:14;28.27;;;13.37;;
3573;SDS011;1801;51.050;6.246;2022-11-20T01:48:15;35.25;;;14.68;;
3573;SDS011;1801;51.050;6.246;2022-11-20T01:50:40;35.03;;;14.70;;
3573;SDS011;1801;51.050;6.246;2022-11-20T01:53:07;34.03;;;14.90;;
3573;SDS011;1801;51.050;6.246;2022-11-20T01:55:34;30.92;;;14.45;;
3573;SDS011;1801;51.050;6.246;2022-11-20T01:58:01;36.78;;;15.95;;
3573;SDS011;1801;51.050;6.246;2022-11-20T02:00:27;35.17;;;15.95;;
3573;SDS011;1801;51.050;6.246;2022-11-20T02:02:59;31.83;;;14.20;;
3573;SDS011;1801;51.050;6.246;2022-11-20T02:05:27;36.83;;;14.65;;
3573;SDS011;1801;51.050;6.246;2022-11-20T02:07:53;23.85;;;13.25;;
3573;SDS011;1801;51.050;6.246;2022-11-20T02:10:19;32.17;;;14.53;;
3573;SDS011;1801;51.050;6.246;2022-11-20T02:12:44;37.53;;;14.97;;
3573;SDS011;1801;51.050;6.246;2022-11-20T02:15:28;32.25;;;13.57;;
3573;SDS011;1801;51.050;6.246;2022-11-20T02:17:54;28.63;;;15.00;;
3573;SDS011;1801;51.050;6.246;2022-11-20T02:20:19;36.13;;;16.63;;
3573;SDS011;1801;51.050;6.246;2022-11-20T02:22:55;36.20;;;16.00;;
3573;SDS011;1801;51.050;6.246;2022-11-20T02:25:21;32.75;;;13.85;;
3573;SDS011;1801;51.050;6.246;2022-11-20T02:27:46;34.23;;;14.50;;
3573;SDS011;1801;51.050;6.246;2022-11-20T02:30:11;34.93;;;14.87;;
3573;SDS011;1801;51.050;6.246;2022-11-20T02:32:37;30.53;;;13.40;;
3573;SDS011;1801;51.050;6.246;2022-11-20T02:35:06;36.80;;;14.93;;
3573;SDS011;1801;51.050;6.246;2022-11-20T02:37:33;32.67;;;14.10;;
3573;SDS011;1801;51.050;6.246;2022-11-20T02:39:59;30.50;;;13.18;;
3573;SDS011;1801;51.050;6.246;2022-11-20T02:42:24;30.63;;;14.90;;
3573;SDS011;1801;51.050;6.246;2022-11-20T02:44:50;31.30;;;13.03;;
3573;SDS011;1801;51.050;6.246;2022-11-20T02:47:15;31.13;;;15.60;;
3573;SDS011;1801;51.050;6.246;2022-11-20T02:49:40;36.67;;;14.97;;
3573;SDS011;1801;51.050;6.246;2022-11-20T02:52:05;34.63;;;14.77;;
3573;SDS011;1801;51.050;6.246;2022-11-20T02:54:30;37.23;;;15.00;;
3573;SDS011;1801;51.050;6.246;2022-11-20T02:56:55;31.73;;;14.27;;
3573;SDS011;1801;51.050;6.246;2022-11-20T02:59:21;33.43;;;14.47;;
3573;SDS011;1801;51.050;6.246;2022-11-20T03:01:46;38.03;;;15.77;;
3573;SDS011;1801;51.050;6.246;2022-11-20T03:04:11;38.50;;;13.77;;
3573;SDS011;1801;51.050;6.246;2022-11-20T03:06:36;31.47;;;15.73;;
3573;SDS011;1801;51.050;6.246;2022-11-20T03:09:01;36.33;;;15.00;;
3573;SDS011;1801;51.050;6.246;2022-11-20T03:11:27;35.60;;;13.70;;
3573;SDS011;1801;51.050;6.246;2022-11-20T03:13:53;39.60;;;16.08;;
3573;SDS011;1801;51.050;6.246;2022-11-20T03:16:19;42.47;;;16.20;;
3573;SDS011;1801;51.050;6.246;2022-11-20T03:18:44;27.55;;;14.07;;
3573;SDS011;1801;51.050;6.246;2022-11-20T03:21:10;28.93;;;14.90;;
3573;SDS011;1801;51.050;6.246;2022-11-20T03:23:36;36.33;;;16.08;;
3573;SDS011;1801;51.050;6.246;2022-11-20T03:26:09;38.03;;;15.90;;
3573;SDS011;1801;51.050;6.246;2022-11-20T03:28:34;32.50;;;14.77;;
3573;SDS011;1801;51.050;6.246;2022-11-20T03:31:04;40.47;;;15.20;;
3573;SDS011;1801;51.050;6.246;2022-11-20T03:33:30;34.53;;;15.10;;
3573;SDS011;1801;51.050;6.246;2022-11-20T03:35:55;41.60;;;16.33;;
3573;SDS011;1801;51.050;6.246;2022-11-20T03:38:25;40.30;;;15.80;;
3573;SDS011;1801;51.050;6.246;2022-11-20T03:40:50;40.03;;;15.37;;
3573;SDS011;1801;51.050;6.246;2022-11-20T03:43:15;43.00;;;17.23;;
3573;SDS011;1801;51.050;6.246;2022-11-20T03:45:40;40.40;;;16.97;;
3573;SDS011;1801;51.050;6.246;2022-11-20T03:48:06;35.80;;;16.93;;
3573;SDS011;1801;51.050;6.246;2022-11-20T03:50:31;28.60;;;13.30;;
3573;SDS011;1801;51.050;6.246;2022-11-20T03:52:56;35.50;;;15.30;;
3573;SDS011;1801;51.050;6.246;2022-11-20T03:55:21;32.27;;;15.40;;
3573;SDS011;1801;51.050;6.246;2022-11-20T03:57:46;37.17;;;16.33;;
3573;SDS011;1801;51.050;6.246;2022-11-20T04:00:12;31.83;;;14.33;;
3573;SDS011;1801;51.050;6.246;2022-11-20T04:02:37;32.40;;;14.37;;
3573;SDS011;1801;51.050;6.246;2022-11-20T04:05:02;37.47;;;15.30;;
3573;SDS011;1801;51.050;6.246;2022-11-20T04:07:28;35.27;;;15.97;;
3573;SDS011;1801;51.050;6.246;2022-11-20T04:09:53;31.50;;;14.63;;
3573;SDS011;1801;51.050;6.246;2022-11-20T04:12:18;28.73;;;15.27;;
3573;SDS011;1801;51.050;6.246;2022-11-20T04:14:43;35.30;;;15.60;;
3573;SDS011;1801;51.050;6.246;2022-11-20T04:17:08;35.17;;;16.20;;
3573;SDS011;1801;51.050;6.246;2022-11-20T04:19:34;34.47;;;14.77;;
3573;SDS011;1801;51.050;6.246;2022-11-20T04:21:59;34.83;;;15.07;;
3573;SDS011;1801;51.050;6.246;2022-11-20T04:24:24;31.73;;;15.40;;
3573;SDS011;1801;51.050;6.246;2022-11-20T04:26:49;35.40;;;15.70;;
3573;SDS011;1801;51.050;6.246;2022-11-20T04:29:14;31.80;;;14.40;;
3573;SDS011;1801;51.050;6.246;2022-11-20T04:31:39;34.33;;;14.40;;
3573;SDS011;1801;51.050;6.246;2022-11-20T04:34:05;32.30;;;15.13;;
3573;SDS011;1801;51.050;6.246;2022-11-20T04:36:31;38.55;;;15.75;;
3573;SDS011;1801;51.050;6.246;2022-11-20T04:38:57;36.27;;;14.57;;
3573;SDS011;1801;51.050;6.246;2022-11-20T04:41:23;30.17;;;13.35;;
3573;SDS011;1801;51.050;6.246;2022-11-20T04:43:49;38.33;;;16.50;;
3573;SDS011;1801;51.050;6.246;2022-11-20T04:46:15;33.42;;;14.45;;
3573;SDS011;1801;51.050;6.246;2022-11-20T04:48:41;31.47;;;15.37;;
3573;SDS011;1801;51.050;6.246;2022-11-20T04:51:06;28.17;;;15.03;;
3573;SDS011;1801;51.050;6.246;2022-11-20T04:53:31;36.63;;;15.40;;
3573;SDS011;1801;51.050;6.246;2022-11-20T04:56:03;39.70;;;15.67;;
3573;SDS011;1801;51.050;6.246;2022-11-20T04:58:29;34.70;;;15.15;;
3573;SDS011;1801;51.050;6.246;2022-11-20T05:01:00;31.93;;;15.30;;
3573;SDS011;1801;51.050;6.246;2022-11-20T05:03:25;34.42;;;15.05;;
3573;SDS011;1801;51.050;6.246;2022-11-20T05:05:50;33.43;;;14.60;;
3573;SDS011;1801;51.050;6.246;2022-11-20T05:08:15;34.83;;;15.10;;
3573;SDS011;1801;51.050;6.246;2022-11-20T05:10:41;39.43;;;16.20;;
3573;SDS011;1801;51.050;6.246;2022-11-20T05:13:06;29.87;;;14.33;;
3573;SDS011;1801;51.050;6.246;2022-11-20T05:15:31;29.30;;;14.93;;
3573;SDS011;1801;51.050;6.246;2022-11-20T05:17:57;31.97;;;15.27;;
3573;SDS011;1801;51.050;6.246;2022-11-20T05:20:22;35.63;;;16.30;;
3573;SDS011;1801;51.050;6.246;2022-11-20T05:22:47;36.30;;;16.07;;
3573;SDS011;1801;51.050;6.246;2022-11-20T05:25:12;32.87;;;15.43;;
3573;SDS011;1801;51.050;6.246;2022-11-20T05:27:38;31.73;;;15.90;;
3573;SDS011;1801;51.050;6.246;2022-11-20T05:30:03;33.00;;;15.70;;
3573;SDS011;1801;51.050;6.246;2022-11-20T05:32:29;39.20;;;16.30;;
3573;SDS011;1801;51.050;6.246;2022-11-20T05:34:54;31.47;;;15.83;;
3573;SDS011;1801;51.050;6.246;2022-11-20T05:37:19;35.20;;;16.30;;
3573;SDS011;1801;51.050;6.246;2022-11-20T05:39:44;38.83;;;15.87;;
3573;SDS011;1801;51.050;6.246;2022-11-20T05:42:10;32.70;;;14.77;;
3573;SDS011;1801;51.050;6.246;2022-11-20T05:44:53;38.35;;;16.55;;
3573;SDS011;1801;51.050;6.246;2022-11-20T05:47:18;38.80;;;15.53;;
3573;SDS011;1801;51.050;6.246;2022-11-20T05:49:44;35.83;;;17.40;;
3573;SDS011;1801;51.050;6.246;2022-11-20T05:52:09;37.03;;;17.07;;
3573;SDS011;1801;51.050;6.246;2022-11-20T05:54:34;43.13;;;16.70;;
3573;SDS011;1801;51.050;6.246;2022-11-20T05:57:00;33.17;;;16.00;;
3573;SDS011;1801;51.050;6.246;2022-11-20T05:59:25;33.63;;;15.20;;
3573;SDS011;1801;51.050;6.246;2022-11-20T06:01:50;30.47;;;15.00;;
3573;SDS011;1801;51.050;6.246;2022-11-20T06:04:16;35.33;;;15.50;;
3573;SDS011;1801;51.050;6.246;2022-11-20T06:06:41;35.17;;;15.00;;
3573;SDS011;1801;51.050;6.246;2022-11-20T06:09:06;32.97;;;15.43;;
3573;SDS011;1801;51.050;6.246;2022-11-20T06:11:31;34.30;;;15.67;;
3573;SDS011;1801;51.050;6.246;2022-11-20T06:13:56;33.37;;;16.50;;
3573;SDS011;1801;51.050;6.246;2022-11-20T06:16:22;37.30;;;16.33;;
3573;SDS011;1801;51.050;6.246;2022-11-20T06:18:47;37.07;;;16.10;;
3573;SDS011;1801;51.050;6.246;2022-11-20T06:21:17;39.20;;;15.73;;
3573;SDS011;1801;51.050;6.246;2022-11-20T06:23:42;31.40;;;14.05;;
3573;SDS011;1801;51.050;6.246;2022-11-20T06:26:15;31.07;;;17.10;;
3573;SDS011;1801;51.050;6.246;2022-11-20T06:28:40;28.95;;;14.27;;
3573;SDS011;1801;51.050;6.246;2022-11-20T06:31:06;30.97;;;15.23;;
3573;SDS011;1801;51.050;6.246;2022-11-20T06:33:31;34.10;;;15.03;;
3573;SDS011;1801;51.050;6.246;2022-11-20T06:35:57;35.63;;;14.17;;
3573;SDS011;1801;51.050;6.246;2022-11-20T06:38:23;37.70;;;16.87;;
3573;SDS011;1801;51.050;6.246;2022-11-20T06:40:48;40.43;;;15.10;;
3573;SDS011;1801;51.050;6.246;2022-11-20T06:43:14;38.20;;;14.30;;
3573;SDS011;1801;51.050;6.246;2022-11-20T06:45:39;40.43;;;16.57;;
3573;SDS011;1801;51.050;6.246;2022-11-20T06:48:04;33.17;;;14.37;;
3573;SDS011;1801;51.050;6.246;2022-11-20T06:50:29;32.67;;;14.07;;
3573;SDS011;1801;51.050;6.246;2022-11-20T06:52:54;46.87;;;19.10;;
3573;SDS011;1801;51.050;6.246;2022-11-20T06:55:20;33.23;;;15.07;;
3573;SDS011;1801;51.050;6.246;2022-11-20T06:57:45;41.57;;;17.17;;
3573;SDS011;1801;51.050;6.246;2022-11-20T07:00:10;36.50;;;14.33;;
3573;SDS011;1801;51.050;6.246;2022-11-20T07:02:38;47.67;;;16.77;;
3573;SDS011;1801;51.050;6.246;2022-11-20T07:05:03;29.40;;;13.47;;
3573;SDS011;1801;51.050;6.246;2022-11-20T07:07:28;33.83;;;15.47;;
3573;SDS011;1801;51.050;6.246;2022-11-20T07:09:54;44.73;;;16.70;;
3573;SDS011;1801;51.050;6.246;2022-11-20T07:12:19;38.40;;;15.53;;
3573;SDS011;1801;51.050;6.246;2022-11-20T07:14:44;38.13;;;16.40;;
3573;SDS011;1801;51.050;6.246;2022-11-20T07:17:09;37.73;;;15.93;;
3573;SDS011;1801;51.050;6.246;2022-11-20T07:19:34;42.63;;;17.57;;
3573;SDS011;1801;51.050;6.246;2022-11-20T07:22:00;45.40;;;16.80;;
3573;SDS011;1801;51.050;6.246;2022-11-20T07:24:25;47.43;;;18.87;;
3573;SDS011;1801;51.050;6.246;2022-11-20T07:26:50;62.13;;;18.50;;
3573;SDS011;1801;51.050;6.246;2022-11-20T07:29:15;52.33;;;18.20;;
3573;SDS011;1801;51.050;6.246;2022-11-20T07:31:41;54.57;;;18.33;;
3573;SDS011;1801;51.050;6.246;2022-11-20T07:34:06;55.07;;;20.77;;
3573;SDS011;1801;51.050;6.246;2022-11-20T07:36:31;67.43;;;19.00;;
3573;SDS011;1801;51.050;6.246;2022-11-20T07:38:57;56.47;;;19.57;;
3573;SDS011;1801;51.050;6.246;2022-11-20T07:41:22;60.43;;;21.63;;
3573;SDS011;1801;51.050;6.246;2022-11-20T07:43:47;61.93;;;21.97;;
3573;SDS011;1801;51.050;6.246;2022-11-20T07:46:12;64.63;;;22.37;;
3573;SDS011;1801;51.050;6.246;2022-11-20T07:48:37;61.63;;;22.30;;
3573;SDS011;1801;51.050;6.246;2022-11-20T07:51:03;56.00;;;20.17;;
3573;SDS011;1801;51.050;6.246;2022-11-20T07:53:28;70.70;;;22.00;;
3573;SDS011;1801;51.050;6.246;2022-11-20T07:55:53;68.03;;;22.33;;
3573;SDS011;1801;51.050;6.246;2022-11-20T07:58:19;64.80;;;19.97;;
3573;SDS011;1801;51.050;6.246;2022-11-20T08:00:45;70.53;;;22.85;;
3573;SDS011;1801;51.050;6.246;2022-11-20T08:03:10;79.70;;;22.83;;
3573;SDS011;1801;51.050;6.246;2022-11-20T08:05:35;66.00;;;20.40;;
3573;SDS011;1801;51.050;6.246;2022-11-20T08:08:00;81.00;;;24.30;;
3573;SDS011;1801;51.050;6.246;2022-11-20T08:10:25;62.90;;;22.03;;
3573;SDS011;1801;51.050;6.246;2022-11-20T08:12:51;58.23;;;21.10;;
3573;SDS011;1801;51.050;6.246;2022-11-20T08:15:36;57.65;;;22.70;;
3573;SDS011;1801;51.050;6.246;2022-11-20T08:18:02;60.65;;;22.40;;
3573;SDS011;1801;51.050;6.246;2022-11-20T08:20:28;64.80;;;21.52;;
3573;SDS011;1801;51.050;6.246;2022-11-20T08:22:57;64.23;;;23.47;;
3573;SDS011;1801;51.050;6.246;2022-11-20T08:25:22;68.13;;;23.40;;
3573;SDS011;1801;51.050;6.246;2022-11-20T08:27:47;86.07;;;22.10;;
3573;SDS011;1801;51.050;6.246;2022-11-20T08:30:12;51.63;;;20.80;;
3573;SDS011;1801;51.050;6.246;2022-11-20T08:32:38;56.73;;;21.33;;
3573;SDS011;1801;51.050;6.246;2022-11-20T08:35:03;65.23;;;21.90;;
3573;SDS011;1801;51.050;6.246;2022-11-20T08:37:28;64.00;;;22.83;;
3573;SDS011;1801;51.050;6.246;2022-11-20T08:39:53;56.97;;;20.77;;
3573;SDS011;1801;51.050;6.246;2022-11-20T08:42:21;54.53;;;19.35;;
3573;SDS011;1801;51.050;6.246;2022-11-20T08:44:47;55.27;;;20.27;;
3573;SDS011;1801;51.050;6.246;2022-11-20T08:47:12;52.43;;;19.20;;
3573;SDS011;1801;51.050;6.246;2022-11-20T08:49:37;60.07;;;19.17;;
3573;SDS011;1801;51.050;6.246;2022-11-20T08:52:02;66.30;;;18.40;;
3573;SDS011;1801;51.050;6.246;2022-11-20T08:54:27;60.53;;;19.90;;
3573;SDS011;1801;51.050;6.246;2022-11-20T08:56:52;60.80;;;21.13;;
3573;SDS011;1801;51.050;6.246;2022-11-20T08:59:18;56.20;;;19.93;;
3573;SDS011;1801;51.050;6.246;2022-11-20T09:01:43;58.87;;;20.90;;
3573;SDS011;1801;51.050;6.246;2022-11-20T09:04:08;48.90;;;18.40;;
3573;SDS011;1801;51.050;6.246;2022-11-20T09:06:33;50.13;;;19.17;;
3573;SDS011;1801;51.050;6.246;2022-11-20T09:08:59;59.17;;;20.47;;
3573;SDS011;1801;51.050;6.246;2022-11-20T09:11:24;59.40;;;19.60;;
3573;SDS011;1801;51.050;6.246;2022-11-20T09:13:50;61.80;;;21.70;;
3573;SDS011;1801;51.050;6.246;2022-11-20T09:16:15;54.87;;;18.43;;
3573;SDS011;1801;51.050;6.246;2022-11-20T09:18:40;51.63;;;18.70;;
3573;SDS011;1801;51.050;6.246;2022-11-20T09:21:08;44.53;;;18.30;;
3573;SDS011;1801;51.050;6.246;2022-11-20T09:23:35;49.08;;;16.95;;
3573;SDS011;1801;51.050;6.246;2022-11-20T09:26:10;54.73;;;18.73;;
3573;SDS011;1801;51.050;6.246;2022-11-20T09:28:36;38.15;;;15.68;;
3573;SDS011;1801;51.050;6.246;2022-11-20T09:31:04;49.73;;;18.40;;
3573;SDS011;1801;51.050;6.246;2022-11-20T09:33:30;51.40;;;19.35;;
3573;SDS011;1801;51.050;6.246;2022-11-20T09:35:55;44.40;;;16.73;;
3573;SDS011;1801;51.050;6.246;2022-11-20T09:38:20;46.83;;;17.63;;
3573;SDS011;1801;51.050;6.246;2022-11-20T09:40:48;43.20;;;17.67;;
3573;SDS011;1801;51.050;6.246;2022-11-20T09:46:06;46.58;;;16.92;;
3573;SDS011;1801;51.050;6.246;2022-11-20T09:48:36;44.10;;;16.50;;
3573;SDS011;1801;51.050;6.246;2022-11-20T09:53:42;43.72;;;16.60;;
3573;SDS011;1801;51.050;6.246;2022-11-20T09:56:10;43.53;;;19.13;;
3573;SDS011;1801;51.050;6.246;2022-11-20T09:58:43;47.23;;;17.97;;
3573;SDS011;1801;51.050;6.246;2022-11-20T10:01:31;50.50;;;18.30;;
3573;SDS011;1801;51.050;6.246;2022-11-20T10:04:17;44.38;;;19.42;;
3573;SDS011;1801;51.050;6.246;2022-11-20T10:06:47;43.17;;;17.10;;
3573;SDS011;1801;51.050;6.246;2022-11-20T10:09:24;39.45;;;15.18;;
3573;SDS011;1801;51.050;6.246;2022-11-20T10:11:56;40.67;;;17.63;;
3573;SDS011;1801;51.050;6.246;2022-11-20T10:20:02;52.55;;;18.45;;
3573;SDS011;1801;51.050;6.246;2022-11-20T10:27:38;44.08;;;16.40;;
3573;SDS011;1801;51.050;6.246;2022-11-20T10:30:12;44.55;;;16.90;;
3573;SDS011;1801;51.050;6.246;2022-11-20T10:32:39;44.58;;;15.02;;
3573;SDS011;1801;51.050;6.246;2022-11-20T10:37:43;48.03;;;19.77;;
3573;SDS011;1801;51.050;6.246;2022-11-20T10:40:55;38.72;;;16.27;;
3573;SDS011;1801;51.050;6.246;2022-11-20T10:43:02;36.20;;;15.85;;
3573;SDS011;1801;51.050;6.246;2022-11-20T10:45:32;38.10;;;15.25;;
3573;SDS011;1801;51.050;6.246;2022-11-20T10:56:28;54.70;;;19.58;;
3573;SDS011;1801;51.050;6.246;2022-11-20T10:59:11;43.88;;;16.95;;
3573;SDS011;1801;51.050;6.246;2022-11-20T11:01:41;50.38;;;18.08;;
3573;SDS011;1801;51.050;6.246;2022-11-20T11:04:13;40.78;;;15.93;;
3573;SDS011;1801;51.050;6.246;2022-11-20T11:06:46;42.70;;;17.67;;
3573;SDS011;1801;51.050;6.246;2022-11-20T11:09:16;46.08;;;18.20;;
3573;SDS011;1801;51.050;6.246;2022-11-20T11:11:42;49.25;;;18.52;;
3573;SDS011;1801;51.050;6.246;2022-11-20T11:14:08;39.27;;;17.90;;
3573;SDS011;1801;51.050;6.246;2022-11-20T11:16:33;51.72;;;20.42;;
3573;SDS011;1801;51.050;6.246;2022-11-20T11:19:11;47.60;;;17.20;;
3573;SDS011;1801;51.050;6.246;2022-11-20T11:21:37;47.78;;;17.48;;
3573;SDS011;1801;51.050;6.246;2022-11-20T11:24:14;42.30;;;19.35;;
3573;SDS011;1801;51.050;6.246;2022-11-20T11:26:40;40.03;;;18.70;;
3573;SDS011;1801;51.050;6.246;2022-11-20T11:29:17;42.67;;;17.67;;
3573;SDS011;1801;51.050;6.246;2022-11-20T11:31:42;52.10;;;18.10;;
3573;SDS011;1801;51.050;6.246;2022-11-20T11:34:08;46.90;;;17.60;;
3573;SDS011;1801;51.050;6.246;2022-11-20T11:36:36;39.70;;;16.33;;
3573;SDS011;1801;51.050;6.246;2022-11-20T11:39:02;44.13;;;18.00;;
3573;SDS011;1801;51.050;6.246;2022-11-20T11:41:30;55.35;;;19.20;;
3573;SDS011;1801;51.050;6.246;2022-11-20T11:43:58;49.08;;;18.67;;
3573;SDS011;1801;51.050;6.246;2022-11-20T11:46:49;41.72;;;17.50;;
3573;SDS011;1801;51.050;6.246;2022-11-20T11:54:24;41.80;;;18.58;;
3573;SDS011;1801;51.050;6.246;2022-11-20T11:56:50;52.40;;;19.08;;
3573;SDS011;1801;51.050;6.246;2022-11-20T11:59:23;55.63;;;21.23;;
3573;SDS011;1801;51.050;6.246;2022-11-20T12:01:53;60.35;;;23.33;;
3573;SDS011;1801;51.050;6.246;2022-11-20T12:07:34;69.45;;;27.30;;
3573;SDS011;1801;51.050;6.246;2022-11-20T12:10:02;53.70;;;22.98;;
3573;SDS011;1801;51.050;6.246;2022-11-20T12:12:30;51.63;;;20.83;;
3573;SDS011;1801;51.050;6.246;2022-11-20T12:14:56;61.55;;;22.77;;
3573;SDS011;1801;51.050;6.246;2022-11-20T12:17:22;42.03;;;18.63;;
3573;SDS011;1801;51.050;6.246;2022-11-20T12:19:47;48.27;;;20.63;;
3573;SDS011;1801;51.050;6.246;2022-11-20T12:22:20;50.27;;;19.37;;
3573;SDS011;1801;51.050;6.246;2022-11-20T12:30:10;42.38;;;18.52;;
3573;SDS011;1801;51.050;6.246;2022-11-20T12:32:43;43.83;;;17.30;;
3573;SDS011;1801;51.050;6.246;2022-11-20T12:40:15;42.05;;;17.80;;
3573;SDS011;1801;51.050;6.246;2022-11-20T12:48:38;55.67;;;22.52;;
3573;SDS011;1801;51.050;6.246;2022-11-20T12:58:41;48.95;;;19.52;;
3573;SDS011;1801;51.050;6.246;2022-11-20T13:01:20;46.88;;;19.50;;
3573;SDS011;1801;51.050;6.246;2022-11-20T13:06:51;59.05;;;23.15;;
3573;SDS011;1801;51.050;6.246;2022-11-20T13:09:17;59.83;;;22.90;;
3573;SDS011;1801;51.050;6.246;2022-11-20T13:14:34;60.95;;;21.98;;
3573;SDS011;1801;51.050;6.246;2022-11-20T13:19:27;65.33;;;23.00;;
3573;SDS011;1801;51.050;6.246;2022-11-20T13:21:54;61.25;;;23.30;;
3573;SDS011;1801;51.050;6.246;2022-11-20T13:26:45;69.70;;;25.80;;
3573;SDS011;1801;51.050;6.246;2022-11-20T13:29:17;88.37;;;35.27;;
3573;SDS011;1801;51.050;6.246;2022-11-20T13:31:43;62.50;;;28.70;;
3573;SDS011;1801;51.050;6.246;2022-11-20T13:34:11;60.15;;;22.35;;
3573;SDS011;1801;51.050;6.246;2022-11-20T13:36:37;52.60;;;21.30;;
3573;SDS011;1801;51.050;6.246;2022-11-20T13:39:12;42.92;;;18.35;;
3573;SDS011;1801;51.050;6.246;2022-11-20T13:41:53;52.05;;;21.38;;
3573;SDS011;1801;51.050;6.246;2022-11-20T13:47:23;50.85;;;20.27;;
3573;SDS011;1801;51.050;6.246;2022-11-20T13:49:49;61.10;;;24.63;;
3573;SDS011;1801;51.050;6.246;2022-11-20T14:00:15;61.97;;;24.58;;
3573;SDS011;1801;51.050;6.246;2022-11-20T14:02:40;58.97;;;22.38;;
3573;SDS011;1801;51.050;6.246;2022-11-20T14:05:11;51.25;;;19.30;;
3573;SDS011;1801;51.050;6.246;2022-11-20T14:07:40;54.03;;;20.45;;
3573;SDS011;1801;51.050;6.246;2022-11-20T14:10:18;54.95;;;20.40;;
3573;SDS011;1801;51.050;6.246;2022-11-20T14:12:44;67.32;;;27.20;;
3573;SDS011;1801;51.050;6.246;2022-11-20T14:15:23;56.27;;;21.90;;
3573;SDS011;1801;51.050;6.246;2022-11-20T14:17:48;54.05;;;21.33;;
3573;SDS011;1801;51.050;6.246;2022-11-20T14:20:14;50.47;;;18.03;;
3573;SDS011;1801;51.050;6.246;2022-11-20T14:22:47;43.72;;;18.65;;
3573;SDS011;1801;51.050;6.246;2022-11-20T14:27:39;48.13;;;21.42;;
3573;SDS011;1801;51.050;6.246;2022-11-20T14:30:06;47.70;;;22.58;;
3573;SDS011;1801;51.050;6.246;2022-11-20T14:32:37;48.72;;;19.88;;
3573;SDS011;1801;51.050;6.246;2022-11-20T14:35:07;48.60;;;19.83;;
3573;SDS011;1801;51.050;6.246;2022-11-20T14:37:36;69.65;;;27.40;;
3573;SDS011;1801;51.050;6.246;2022-11-20T14:40:02;64.60;;;25.98;;
3573;SDS011;1801;51.050;6.246;2022-11-20T14:42:28;47.70;;;20.77;;
3573;SDS011;1801;51.050;6.246;2022-11-20T14:44:57;53.50;;;20.73;;
3573;SDS011;1801;51.050;6.246;2022-11-20T14:47:23;43.58;;;19.10;;
3573;SDS011;1801;51.050;6.246;2022-11-20T14:49:50;45.15;;;19.35;;
3573;SDS011;1801;51.050;6.246;2022-11-20T14:52:23;34.20;;;15.20;;
3573;SDS011;1801;51.050;6.246;2022-11-20T14:54:49;42.13;;;16.55;;
3573;SDS011;1801;51.050;6.246;2022-11-20T14:59:49;37.25;;;15.43;;
3573;SDS011;1801;51.050;6.246;2022-11-20T15:02:14;26.10;;;10.63;;
3573;SDS011;1801;51.050;6.246;2022-11-20T15:04:46;27.97;;;11.20;;
3573;SDS011;1801;51.050;6.246;2022-11-20T15:07:22;17.17;;;7.88;;
3573;SDS011;1801;51.050;6.246;2022-11-20T15:09:48;20.25;;;7.97;;
3573;SDS011;1801;51.050;6.246;2022-11-20T15:12:23;13.02;;;4.57;;
3573;SDS011;1801;51.050;6.246;2022-11-20T15:14:48;16.73;;;4.37;;
3573;SDS011;1801;51.050;6.246;2022-11-20T15:17:13;4.90;;;3.73;;
3573;SDS011;1801;51.050;6.246;2022-11-20T15:19:39;10.50;;;6.13;;
3573;SDS011;1801;51.050;6.246;2022-11-20T15:22:04;3.77;;;2.57;;
3573;SDS011;1801;51.050;6.246;2022-11-20T15:24:29;8.70;;;3.07;;
3573;SDS011;1801;51.050;6.246;2022-11-20T15:26:54;11.03;;;2.87;;
3573;SDS011;1801;51.050;6.246;2022-11-20T15:29:20;11.10;;;4.50;;
3573;SDS011;1801;51.050;6.246;2022-11-20T15:31:46;5.03;;;3.47;;
3573;SDS011;1801;51.050;6.246;2022-11-20T15:34:12;6.87;;;3.90;;
3573;SDS011;1801;51.050;6.246;2022-11-20T15:36:38;4.40;;;3.77;;
3573;SDS011;1801;51.050;6.246;2022-11-20T15:39:03;8.70;;;4.30;;
3573;SDS011;1801;51.050;6.246;2022-11-20T15:41:28;8.30;;;4.70;;
3573;SDS011;1801;51.050;6.246;2022-11-20T15:43:53;6.60;;;3.97;;
3573;SDS011;1801;51.050;6.246;2022-11-20T15:46:21;9.20;;;4.50;;
3573;SDS011;1801;51.050;6.246;2022-11-20T15:48:51;13.52;;;6.70;;
3573;SDS011;1801;51.050;6.246;2022-11-20T15:51:35;15.10;;;6.10;;
3573;SDS011;1801;51.050;6.246;2022-11-20T15:54:01;14.63;;;6.65;;
3573;SDS011;1801;51.050;6.246;2022-11-20T15:56:28;8.30;;;4.35;;
3573;SDS011;1801;51.050;6.246;2022-11-20T15:58:54;7.30;;;4.63;;
3573;SDS011;1801;51.050;6.246;2022-11-20T16:01:20;9.33;;;4.77;;
3573;SDS011;1801;51.050;6.246;2022-11-20T16:03:46;10.55;;;5.25;;
3573;SDS011;1801;51.050;6.246;2022-11-20T16:06:11;11.67;;;5.70;;
3573;SDS011;1801;51.050;6.246;2022-11-20T16:08:36;11.57;;;3.87;;
3573;SDS011;1801;51.050;6.246;2022-11-20T16:11:02;6.90;;;4.90;;
3573;SDS011;1801;51.050;6.246;2022-11-20T16:13:27;11.13;;;4.33;;
3573;SDS011;1801;51.050;6.246;2022-11-20T16:16:31;8.60;;;4.22;;
3573;SDS011;1801;51.050;6.246;2022-11-20T16:18:57;8.55;;;4.20;;